Terminal Aerodrome Forecast
Issued by NWS

Home | Current Version | Previous Version | Text Only | Print | Product List | Glossary On
Versions: 1 2 3 4 5 6 7 8 9 10 11 12 13 14 15 16 17 18 19 20 21 22 23 24 25
000
FTUS43 KDDC 271141 RRA
TAFGCK
TAF
KGCK 271141Z 2712/2812 13007KT P6SM BKN070
      TEMPO 2712/2714 5SM -RA
     FM271700 15010KT P6SM SCT050
      TEMPO 2800/2804 P6SM +TSRA BKN050CB
     FM280700 15007KT P6SM VCTS OVC050CB=

USA.gov is the U.S. government's official web portal to all federal, state and local government web resources and services.